createdAt,value
2019-03-11T10:23:48.396Z,69.90
2019-03-11T10:26:27.718Z,68.80
2019-03-11T10:29:05.740Z,67.50
2019-03-11T10:31:47.957Z,68.60
2019-03-11T10:34:27.580Z,68.60
2019-03-11T10:37:07.950Z,69.50
2019-03-11T10:39:48.023Z,68.80
2019-03-11T10:42:25.955Z,69.20
2019-03-11T10:45:05.247Z,68.30
2019-03-11T10:47:43.469Z,68.60
2019-03-11T10:50:22.430Z,67.80
2019-03-11T10:53:01.293Z,68.80
2019-03-11T10:55:39.941Z,69.30
2019-03-11T10:58:19.106Z,69.30
2019-03-11T11:00:57.404Z,70.70
2019-03-11T11:03:35.779Z,71.10
2019-03-11T11:06:13.827Z,71.80
2019-03-11T11:08:51.414Z,72.60
2019-03-11T11:11:31.813Z,73.10
2019-03-11T11:14:10.604Z,73.00
2019-03-11T11:16:49.833Z,72.80
2019-03-11T11:19:33.180Z,73.30
2019-03-11T11:22:14.046Z,73.80
2019-03-11T11:24:59.177Z,74.10
2019-03-11T11:27:43.497Z,76.80
2019-03-11T11:30:25.493Z,78.10
2019-03-11T11:33:06.786Z,78.30
2019-03-11T11:35:45.544Z,78.30
2019-03-11T11:38:25.323Z,77.40
2019-03-11T11:41:02.829Z,77.40
2019-03-11T11:43:41.863Z,77.30
2019-03-11T11:46:21.556Z,79.30
2019-03-11T11:48:59.920Z,80.20
2019-03-11T11:51:38.903Z,79.70
2019-03-11T11:54:20.432Z,78.70
2019-03-11T11:56:59.103Z,79.20
2019-03-11T11:59:37.351Z,80.60
2019-03-11T12:02:15.983Z,80.90
2019-03-11T12:04:54.392Z,80.70
2019-03-11T12:07:33.993Z,81.40
2019-03-11T12:10:18.873Z,82.90
2019-03-11T12:12:57.804Z,84.80
2019-03-11T12:15:36.405Z,85.80
2019-03-11T12:18:19.238Z,85.40
2019-03-11T12:21:00.951Z,85.20
2019-03-11T12:23:46.277Z,86.10
2019-03-11T12:26:28.801Z,86.80
2019-03-11T12:29:08.735Z,86.60
2019-03-11T12:31:46.950Z,86.00
2019-03-11T12:34:28.788Z,86.20
2019-03-11T12:37:09.075Z,86.60
2019-03-11T12:39:49.195Z,87.30
2019-03-11T12:42:27.978Z,86.90
2019-03-11T12:45:06.752Z,87.20
2019-03-11T12:47:47.596Z,85.90
2019-03-11T12:50:30.138Z,86.20
2019-03-11T12:53:08.633Z,86.60
2019-03-11T12:55:47.435Z,87.50
2019-03-11T12:58:26.129Z,87.40
2019-03-11T13:01:09.190Z,87.00
2019-03-11T13:03:47.413Z,87.50
2019-03-11T13:06:28.558Z,87.80
2019-03-11T13:09:08.603Z,87.90
2019-03-11T13:11:52.151Z,88.50
2019-03-11T13:14:30.793Z,87.90
2019-03-11T13:17:12.626Z,87.70
2019-03-11T13:19:51.126Z,87.80
2019-03-11T13:22:30.305Z,88.20
2019-03-11T13:25:08.480Z,88.40
2019-03-11T13:27:49.200Z,87.50
2019-03-11T13:30:27.596Z,87.60
2019-03-11T13:33:10.041Z,88.30
2019-03-11T13:35:56.543Z,88.60
2019-03-11T13:38:40.167Z,88.20
2019-03-11T13:41:23.210Z,88.50
2019-03-11T13:44:02.027Z,88.40
2019-03-11T13:46:41.650Z,88.80
2019-03-11T13:49:22.532Z,89.40
2019-03-11T13:52:03.510Z,88.60
2019-03-11T13:54:43.474Z,88.60
2019-03-11T13:57:23.332Z,89.90
2019-03-11T14:00:02.262Z,90.20
2019-03-11T14:02:40.403Z,89.50
2019-03-11T14:05:19.062Z,89.20
2019-03-11T14:07:59.564Z,88.90
2019-03-11T14:10:41.379Z,90.20
2019-03-11T14:13:20.059Z,90.30
2019-03-11T14:15:59.224Z,90.30
2019-03-11T14:18:36.665Z,90.20
2019-03-11T14:21:25.238Z,90.60
2019-03-11T14:23:56.866Z,91.00
2019-03-11T14:26:35.495Z,91.40
2019-03-11T14:29:13.901Z,91.20
2019-03-11T14:31:52.662Z,91.10
2019-03-11T14:34:31.413Z,91.10
2019-03-11T14:37:11.014Z,91.50
2019-03-11T14:39:50.864Z,91.80
2019-03-11T14:42:30.288Z,91.60
2019-03-11T14:45:09.411Z,91.50
2019-03-11T14:47:48.132Z,91.40
2019-03-11T14:50:26.984Z,91.60
2019-03-11T14:53:05.957Z,92.10
2019-03-11T14:55:44.150Z,91.70
2019-03-11T14:58:29.465Z,91.50
2019-03-11T15:01:02.607Z,91.80
2019-03-11T15:03:44.648Z,92.30
2019-03-11T15:06:22.143Z,92.10
2019-03-11T15:09:00.711Z,91.90
2019-03-11T15:11:41.050Z,91.80
2019-03-11T15:14:20.190Z,91.90
2019-03-11T15:16:59.011Z,92.50
2019-03-11T15:19:38.164Z,92.40
2019-03-11T15:22:16.604Z,91.60
2019-03-11T15:24:55.242Z,91.70
2019-03-11T15:27:33.596Z,92.20
2019-03-11T15:30:15.353Z,92.50
2019-03-11T15:32:55.095Z,92.30
2019-03-11T15:35:33.104Z,92.10
2019-03-11T15:38:15.581Z,92.30
2019-03-11T15:40:51.830Z,92.50
2019-03-11T15:43:29.583Z,92.60
2019-03-11T15:46:08.647Z,92.30
2019-03-11T15:48:47.113Z,92.60
2019-03-11T15:51:25.139Z,92.70
2019-03-11T15:54:03.956Z,93.00
2019-03-11T15:56:43.245Z,93.20
2019-03-11T15:59:21.843Z,93.10
2019-03-11T16:02:00.784Z,92.90
2019-03-11T16:04:39.076Z,93.00
2019-03-11T16:07:16.997Z,93.10
2019-03-11T16:09:57.076Z,93.50
2019-03-11T16:12:36.651Z,93.10
2019-03-11T16:15:14.996Z,92.80
2019-03-11T16:17:54.708Z,92.90
2019-03-11T16:20:33.362Z,93.50
2019-03-11T16:23:12.426Z,93.30
2019-03-11T16:25:50.990Z,93.00
2019-03-11T16:28:29.852Z,92.50
2019-03-11T16:31:09.528Z,93.10
2019-03-11T16:33:48.460Z,93.00
2019-03-11T16:36:27.679Z,92.30
2019-03-11T16:39:06.301Z,92.30
2019-03-11T16:41:45.276Z,92.30
2019-03-11T16:44:23.389Z,93.10
2019-03-11T16:47:02.148Z,93.30
2019-03-11T16:49:42.504Z,93.10
2019-03-11T16:52:21.114Z,93.20
2019-03-11T16:54:59.749Z,93.30
2019-03-11T16:57:37.743Z,93.70
2019-03-11T17:00:21.009Z,94.00
2019-03-11T17:02:59.642Z,93.60
2019-03-11T17:05:38.139Z,93.40
2019-03-11T17:08:18.193Z,93.20
2019-03-11T17:10:56.593Z,93.40
2019-03-11T17:13:34.747Z,93.80
2019-03-11T17:16:13.260Z,93.70
2019-03-11T17:18:51.894Z,93.30
2019-03-11T17:21:33.102Z,93.30
2019-03-11T17:24:12.557Z,93.90
2019-03-11T17:26:52.289Z,94.30
2019-03-11T17:29:30.848Z,94.30
2019-03-11T17:32:09.075Z,94.20
2019-03-11T17:34:47.246Z,94.30
2019-03-11T17:37:25.295Z,94.70
2019-03-11T17:40:03.845Z,94.50
2019-03-11T17:42:42.951Z,94.10
2019-03-11T17:45:21.213Z,93.90
2019-03-11T17:47:59.873Z,94.30
2019-03-11T17:50:39.260Z,94.50
2019-03-11T17:53:20.195Z,94.80
2019-03-11T17:56:00.250Z,94.30
2019-03-11T17:58:38.894Z,94.10
2019-03-11T18:01:19.511Z,94.50
2019-03-11T18:03:58.507Z,94.70
2019-03-11T18:06:37.242Z,94.70
2019-03-11T18:09:16.130Z,94.20
2019-03-11T18:11:54.331Z,94.40
2019-03-11T18:14:32.341Z,94.40
2019-03-11T18:17:12.409Z,94.70
2019-03-11T18:19:54.248Z,94.90
2019-03-11T18:22:33.077Z,94.80
2019-03-11T18:25:13.164Z,94.60
2019-03-11T18:27:52.294Z,94.80
2019-03-11T18:30:31.291Z,95.20
2019-03-11T18:33:09.860Z,95.60
2019-03-11T18:35:48.233Z,95.60
2019-03-11T18:38:26.647Z,95.10
2019-03-11T18:41:05.399Z,95.50
2019-03-11T18:43:43.326Z,95.80
2019-03-11T18:46:21.884Z,95.70
2019-03-11T18:49:00.217Z,95.20
2019-03-11T18:51:39.284Z,94.80
2019-03-11T18:54:17.812Z,95.10
2019-03-11T18:56:56.452Z,95.70
2019-03-11T18:59:34.365Z,95.80
2019-03-11T19:02:13.763Z,95.30
2019-03-11T19:04:53.075Z,95.20
2019-03-11T19:07:31.482Z,95.40
2019-03-11T19:10:10.190Z,95.90
2019-03-11T19:12:49.369Z,96.30
2019-03-11T19:15:27.873Z,95.90
2019-03-11T19:18:05.612Z,95.70
2019-03-11T19:20:46.114Z,95.90
2019-03-11T19:23:24.467Z,96.00
2019-03-11T19:26:01.950Z,96.30
2019-03-11T19:28:41.959Z,96.00
2019-03-11T19:31:20.667Z,95.50
2019-03-11T19:33:59.685Z,95.40
2019-03-11T19:36:38.028Z,95.70
2019-03-11T19:39:21.269Z,96.00
2019-03-11T19:42:00.242Z,96.00
2019-03-11T19:44:47.601Z,95.60
2019-03-11T19:47:27.541Z,95.70
2019-03-11T19:50:07.333Z,96.40
2019-03-11T19:52:57.731Z,96.50
2019-03-11T19:55:27.526Z,96.30
2019-03-11T19:58:05.980Z,95.90
2019-03-11T20:00:45.187Z,96.10
2019-03-11T20:03:29.250Z,95.80
2019-03-11T20:06:04.297Z,96.30
2019-03-11T20:08:42.953Z,96.00
2019-03-11T20:11:21.017Z,96.00
2019-03-11T20:13:59.666Z,95.80
2019-03-11T20:16:38.816Z,96.30
2019-03-11T20:19:16.862Z,96.40
2019-03-11T20:21:55.077Z,96.40
2019-03-11T20:24:33.571Z,96.10
2019-03-11T20:27:12.863Z,96.00
2019-03-11T20:29:52.599Z,96.20
2019-03-11T20:32:31.582Z,96.60
2019-03-11T20:35:17.594Z,96.70
2019-03-11T20:37:54.481Z,96.50
2019-03-11T20:40:33.026Z,95.80
2019-03-11T20:43:11.669Z,95.60
2019-03-11T20:45:50.441Z,95.80
2019-03-11T20:48:29.399Z,95.90
2019-03-11T20:51:08.542Z,95.60
2019-03-11T20:53:47.294Z,95.60
2019-03-11T20:56:25.376Z,96.30
2019-03-11T20:59:03.625Z,96.80
2019-03-11T21:01:44.709Z,97.20
2019-03-11T21:04:24.481Z,97.00
2019-03-11T21:07:03.647Z,96.60
2019-03-11T21:09:41.878Z,96.60
2019-03-11T21:12:24.587Z,96.60
2019-03-11T21:15:01.958Z,96.80
2019-03-11T21:17:42.257Z,96.60
2019-03-11T21:20:22.337Z,96.60
2019-03-11T21:23:00.575Z,96.70
2019-03-11T21:25:38.922Z,96.70
2019-03-11T21:28:18.854Z,97.10
2019-03-11T21:31:01.594Z,97.20
2019-03-11T21:33:40.921Z,97.00
2019-03-11T21:36:20.327Z,96.80
2019-03-11T21:38:59.074Z,96.80
2019-03-11T21:41:37.727Z,96.80
2019-03-11T21:44:15.801Z,96.50
2019-03-11T21:46:53.607Z,96.40
2019-03-11T21:49:32.567Z,96.60
2019-03-11T21:52:10.495Z,96.70
2019-03-11T21:54:48.908Z,96.90
2019-03-11T21:57:30.050Z,97.30
2019-03-11T22:00:09.548Z,97.30
2019-03-11T22:02:49.181Z,97.30
2019-03-11T22:05:27.386Z,97.30
2019-03-11T22:08:07.328Z,97.30
2019-03-11T22:10:45.807Z,97.20
2019-03-11T22:13:23.677Z,96.90
2019-03-11T22:16:01.279Z,96.50
2019-03-11T22:18:39.015Z,96.80
2019-03-11T22:21:17.185Z,97.30
2019-03-11T22:23:58.898Z,97.00
2019-03-11T22:26:37.150Z,97.00
2019-03-11T22:29:14.650Z,97.00
2019-03-11T22:31:52.763Z,97.60
2019-03-11T22:34:30.985Z,98.10
2019-03-11T22:37:09.724Z,98.20
2019-03-11T22:39:48.322Z,98.00
2019-03-11T22:42:26.823Z,97.60
2019-03-11T22:45:04.895Z,97.40
2019-03-11T22:47:42.976Z,97.50
2019-03-11T22:50:21.168Z,97.10
2019-03-11T22:52:59.390Z,97.10
2019-03-11T22:55:39.204Z,97.20
2019-03-11T22:58:18.001Z,97.40
2019-03-11T23:01:04.048Z,97.20
2019-03-11T23:03:50.346Z,96.90
2019-03-11T23:06:23.428Z,96.70
2019-03-11T23:09:02.561Z,96.80
2019-03-11T23:11:41.861Z,97.20
2019-03-11T23:14:21.927Z,97.30
2019-03-11T23:17:03.727Z,97.20
2019-03-11T23:19:41.777Z,97.10
2019-03-11T23:22:21.664Z,97.40
2019-03-11T23:25:04.671Z,97.30
2019-03-11T23:27:44.463Z,97.30
2019-03-11T23:30:23.609Z,97.20
2019-03-11T23:33:03.450Z,97.10
2019-03-11T23:35:42.049Z,96.90
2019-03-11T23:38:21.021Z,97.00
2019-03-11T23:41:00.526Z,97.20
2019-03-11T23:43:40.014Z,96.90
2019-03-11T23:46:18.298Z,96.70
2019-03-11T23:48:56.226Z,97.00
2019-03-11T23:51:34.277Z,97.20
2019-03-11T23:54:11.688Z,97.30
2019-03-11T23:56:49.508Z,96.90
2019-03-11T23:59:29.304Z,96.90
